Time;durP1;ratioP1;P1;durP2;ratioP2;P2;SDS_P1;SDS_P2;PMS_P1;PMS_P2;Temp;Humidity;BMP_temperature;BMP_pressure;BME280_temperature;BME280_humidity;BME280_pressure;Samples;Min_cycle;Max_cycle;Signal;HPM_P1;HPM_P2
2022/05/06 00:00:16;;;;;;;3.55;1.98;;;12.00;75.80;;;;;;5064561;28;20040;-65
2022/05/06 00:02:50;;;;;;;5.97;1.95;;;12.00;75.80;;;;;;5066058;28;20098;-65
2022/05/06 00:05:18;;;;;;;3.47;2.00;;;12.00;75.80;;;;;;5066817;28;20049;-65
2022/05/06 00:07:52;;;;;;;6.40;2.38;;;12.00;75.80;;;;;;5067138;28;20070;-64
2022/05/06 00:10:19;;;;;;;5.35;2.28;;;11.90;75.90;;;;;;5066017;28;20045;-65
2022/05/06 00:12:46;;;;;;;4.50;2.15;;;11.90;76.00;;;;;;5066552;28;20046;-66
2022/05/06 00:15:14;;;;;;;4.35;2.13;;;11.90;75.90;;;;;;5068501;28;20045;-65
2022/05/06 00:17:41;;;;;;;4.32;1.80;;;12.00;75.80;;;;;;5067145;28;20037;-66
2022/05/06 00:20:09;;;;;;;5.22;2.65;;;11.90;75.80;;;;;;5071508;28;20052;-65
2022/05/06 00:22:37;;;;;;;5.53;2.13;;;11.90;75.70;;;;;;5070131;28;20587;-66
2022/05/06 00:25:05;;;;;;;3.13;1.77;;;11.90;75.80;;;;;;5061270;28;20128;-65
2022/05/06 00:27:32;;;;;;;6.25;1.88;;;11.80;75.80;;;;;;5060780;28;20118;-65
2022/05/06 00:29:59;;;;;;;4.07;2.20;;;11.80;75.70;;;;;;5061231;28;20052;-65
2022/05/06 00:32:26;;;;;;;4.32;2.03;;;11.70;75.70;;;;;;5057864;28;20045;-64
2022/05/06 00:34:53;;;;;;;5.72;1.95;;;11.70;75.60;;;;;;5037058;28;20094;-65
2022/05/06 00:37:20;;;;;;;3.15;1.63;;;11.70;75.70;;;;;;5046970;28;20040;-65
2022/05/06 00:39:49;;;;;;;3.20;1.65;;;11.60;75.70;;;;;;5048383;28;20041;-65
2022/05/06 00:42:16;;;;;;;3.72;1.73;;;11.60;75.90;;;;;;5049796;28;20041;-66
2022/05/06 00:44:43;;;;;;;5.80;1.80;;;11.60;76.00;;;;;;5031561;28;20116;-66
2022/05/06 00:47:10;;;;;;;3.80;1.70;;;11.60;75.90;;;;;;5037134;28;20306;-67
2022/05/06 00:49:38;;;;;;;3.72;1.63;;;11.60;75.80;;;;;;5033853;28;20037;-65
2022/05/06 00:52:08;;;;;;;5.15;1.98;;;11.60;75.90;;;;;;5038360;28;20044;-66
2022/05/06 00:54:37;;;;;;;4.78;1.50;;;11.50;75.90;;;;;;5016391;28;20053;-66
2022/05/06 00:57:07;;;;;;;4.10;1.70;;;11.50;76.10;;;;;;5035119;28;20422;-64
2022/05/06 01:00:17;;;;;;;;;;;11.50;76.00;;;;;;5038228;28;20494;-66
2022/05/06 01:02:23;;;;;;;2.80;1.42;;;11.40;76.20;;;;;;5037973;28;19933;-66
2022/05/06 01:04:50;;;;;;;3.13;2.10;;;11.40;76.20;;;;;;5027815;28;20167;-67
2022/05/06 01:07:18;;;;;;;5.13;1.95;;;11.40;76.20;;;;;;5027267;28;20075;-66
2022/05/06 01:09:45;;;;;;;3.42;1.60;;;11.40;76.10;;;;;;5039368;28;20501;-65
2022/05/06 01:12:14;;;;;;;5.15;1.70;;;11.40;76.20;;;;;;5047114;28;20063;-65
2022/05/06 01:14:41;;;;;;;6.82;2.45;;;11.40;76.20;;;;;;5032179;28;20148;-65
2022/05/06 01:17:22;;;;;;;4.95;1.88;;;11.40;76.10;;;;;;5032743;28;20048;-64
2022/05/06 01:19:49;;;;;;;4.32;1.85;;;11.40;76.20;;;;;;5047389;28;20133;-66
2022/05/06 01:22:18;;;;;;;4.80;1.90;;;11.20;76.20;;;;;;5023093;28;20041;-64
2022/05/06 01:24:45;;;;;;;2.92;1.60;;;11.20;76.30;;;;;;5043849;28;20044;-64
2022/05/06 01:27:17;;;;;;;5.32;1.65;;;11.20;76.30;;;;;;5041314;28;21235;-65
2022/05/06 01:29:46;;;;;;;3.55;1.45;;;11.10;76.60;;;;;;5047347;28;20040;-65
2022/05/06 01:32:15;;;;;;;4.32;1.90;;;11.10;76.50;;;;;;5041330;28;20052;-66
2022/05/06 01:34:43;;;;;;;3.65;2.03;;;11.10;76.60;;;;;;5066608;28;20032;-64
2022/05/06 01:37:23;;;;;;;5.18;2.78;;;11.10;76.70;;;;;;5051751;28;20053;-66
2022/05/06 01:40:00;;;;;;;3.40;1.83;;;11.10;76.80;;;;;;5070312;28;20045;-67
2022/05/06 01:42:30;;;;;;;3.45;1.73;;;11.10;76.80;;;;;;5068600;28;20060;-65
2022/05/06 01:45:11;;;;;;;4.25;2.05;;;11.10;76.70;;;;;;5069363;28;20122;-64
2022/05/06 01:47:41;;;;;;;3.75;1.88;;;11.10;76.60;;;;;;5062938;28;20044;-65
2022/05/06 01:50:13;;;;;;;4.88;2.20;;;11.10;76.60;;;;;;5059332;28;20071;-65
2022/05/06 01:52:43;;;;;;;4.32;1.98;;;11.10;76.50;;;;;;5047368;28;20856;-64
2022/05/06 01:55:12;;;;;;;6.83;2.57;;;11.00;76.70;;;;;;5063910;28;20101;-66
2022/05/06 01:57:56;;;;;;;3.78;1.70;;;11.00;76.90;;;;;;5042992;28;20085;-67
2022/05/06 02:00:24;;;;;;;10.63;2.30;;;10.90;77.10;;;;;;5043983;28;20151;-66
2022/05/06 02:02:51;;;;;;;6.28;2.25;;;11.00;77.00;;;;;;5065481;28;20109;-65
2022/05/06 02:05:26;;;;;;;4.90;1.83;;;11.00;76.90;;;;;;5060794;28;20402;-64
2022/05/06 02:07:57;;;;;;;4.45;2.08;;;11.00;76.80;;;;;;5045099;28;20058;-64
2022/05/06 02:10:26;;;;;;;3.65;2.08;;;10.90;76.90;;;;;;5064871;28;20603;-66
2022/05/06 02:13:05;;;;;;;4.57;2.03;;;10.90;76.90;;;;;;5066842;28;20067;-66
2022/05/06 02:15:33;;;;;;;4.97;2.10;;;10.90;76.90;;;;;;5064880;28;20072;-65
2022/05/06 02:18:27;;;;;;;4.95;2.13;;;10.90;76.90;;;;;;5048932;28;20060;-67
2022/05/06 02:21:21;;;;;;;3.47;1.92;;;10.90;76.90;;;;;;5052924;28;20044;-66
2022/05/06 02:24:02;;;;;;;3.90;1.80;;;10.80;77.10;;;;;;5067043;28;20132;-66
2022/05/06 02:26:52;;;;;;;4.40;1.98;;;10.80;77.20;;;;;;5064610;28;20044;-64
2022/05/06 02:29:19;;;;;;;3.58;1.80;;;10.70;77.10;;;;;;5065486;28;20044;-65
2022/05/06 02:34:30;;;;;;;7.22;1.95;;;10.80;76.90;;;;;;5059909;28;20386;-65
2022/05/06 02:37:03;;;;;;;5.55;2.20;;;10.70;76.90;;;;;;5044725;28;20530;-67
2022/05/06 02:39:42;;;;;;;3.30;1.70;;;10.70;76.90;;;;;;5044156;28;20490;-66
2022/05/06 02:42:17;;;;;;;4.70;2.25;;;10.70;76.90;;;;;;5060409;28;20186;-65
2022/05/06 02:44:48;;;;;;;4.60;2.00;;;10.60;76.90;;;;;;5067839;28;20449;-65
2022/05/06 02:47:16;;;;;;;4.80;2.20;;;10.60;76.80;;;;;;5051354;28;20521;-65
2022/05/06 02:49:44;;;;;;;3.05;1.55;;;10.60;76.80;;;;;;5066730;28;20045;-66
2022/05/06 02:52:14;;;;;;;3.78;1.98;;;10.60;76.80;;;;;;5051248;28;20044;-66
2022/05/06 02:54:42;;;;;;;4.05;1.95;;;10.60;76.80;;;;;;5067689;28;20044;-64
2022/05/06 02:57:13;;;;;;;5.28;2.05;;;10.60;76.80;;;;;;5067414;28;20751;-66
2022/05/06 02:59:43;;;;;;;4.45;1.88;;;10.50;76.80;;;;;;5044310;28;20048;-66
2022/05/06 03:02:10;;;;;;;4.45;1.90;;;10.50;76.80;;;;;;5047791;28;20048;-66
2022/05/06 03:04:38;;;;;;;6.15;1.80;;;10.50;76.70;;;;;;5069202;28;20047;-65
2022/05/06 03:07:07;;;;;;;3.50;1.67;;;10.50;76.60;;;;;;5064505;28;20060;-65
2022/05/06 03:09:47;;;;;;;4.28;1.90;;;10.50;76.70;;;;;;5050611;28;20073;-65
2022/05/06 03:12:16;;;;;;;4.57;1.98;;;10.50;76.70;;;;;;5067394;28;20055;-67
2022/05/06 03:14:52;;;;;;;6.30;2.13;;;10.40;76.70;;;;;;5059611;28;20148;-67
2022/05/06 03:17:27;;;;;;;3.50;2.10;;;10.40;76.70;;;;;;5068174;28;20110;-67
2022/05/06 03:19:54;;;;;;;3.30;1.75;;;10.40;76.70;;;;;;5069354;28;20051;-65
2022/05/06 03:22:21;;;;;;;3.75;1.77;;;10.40;76.70;;;;;;5066301;28;20040;-65
2022/05/06 03:24:50;;;;;;;7.50;2.97;;;10.30;76.90;;;;;;5065847;28;20135;-67
2022/05/06 03:30:01;;;;;;;4.03;2.10;;;10.20;77.00;;;;;;5067662;28;20056;-64
2022/05/06 03:32:31;;;;;;;4.00;1.77;;;10.20;76.90;;;;;;5042149;28;20052;-66
2022/05/06 03:34:58;;;;;;;3.88;1.83;;;10.20;77.20;;;;;;5060526;28;20102;-66
2022/05/06 03:37:27;;;;;;;3.60;1.90;;;10.20;77.10;;;;;;5060703;28;20116;-66
2022/05/06 03:39:56;;;;;;;5.15;1.88;;;10.10;77.10;;;;;;5049944;28;20138;-65
2022/05/06 03:42:24;;;;;;;4.45;1.80;;;10.20;77.10;;;;;;5067768;28;20048;-67
2022/05/06 03:44:51;;;;;;;4.95;2.03;;;10.20;77.00;;;;;;5049393;28;20049;-66
2022/05/06 03:47:19;;;;;;;4.55;1.83;;;10.10;76.90;;;;;;5068937;28;20474;-65
2022/05/06 03:51:20;;;;;;;3.70;1.85;;;10.10;77.10;;;;;;5054585;28;20072;-66
2022/05/06 03:52:33;;;;;;;3.65;1.77;;;10.10;77.00;;;;;;5054379;28;20056;-67
2022/05/06 03:55:02;;;;;;;3.83;2.00;;;10.10;76.90;;;;;;5072827;28;20056;-66
2022/05/06 03:57:29;;;;;;;6.18;2.03;;;10.10;76.80;;;;;;5071749;28;20123;-65
2022/05/06 03:59:56;;;;;;;3.97;2.03;;;10.10;76.80;;;;;;5055191;28;20606;-67
2022/05/06 04:02:24;;;;;;;5.80;2.40;;;10.10;76.70;;;;;;5062716;28;20063;-66
2022/05/06 04:04:52;;;;;;;5.63;2.28;;;10.00;76.80;;;;;;5043592;28;20078;-67
2022/05/06 04:07:22;;;;;;;5.63;2.50;;;10.10;76.80;;;;;;5062455;28;20426;-65
2022/05/06 04:09:50;;;;;;;4.05;2.13;;;10.00;76.90;;;;;;5068936;28;20406;-66
2022/05/06 04:12:21;;;;;;;4.57;1.77;;;10.00;76.90;;;;;;5053238;28;20078;-66
2022/05/06 04:14:53;;;;;;;4.28;2.03;;;10.00;77.00;;;;;;5053633;28;20076;-67
2022/05/06 04:17:23;;;;;;;5.80;2.05;;;9.90;77.10;;;;;;5053846;28;20051;-65
2022/05/06 04:25:25;;;;;;;3.45;1.48;;;9.90;77.30;;;;;;5053042;28;20088;-66
2022/05/06 04:27:58;;;;;;;4.25;2.15;;;9.90;77.40;;;;;;5054821;28;20125;-67
2022/05/06 04:30:25;;;;;;;4.30;2.08;;;9.90;77.60;;;;;;5052182;28;20068;-64
2022/05/06 04:33:07;;;;;;;4.78;2.03;;;9.90;77.50;;;;;;5042431;28;20081;-66
2022/05/06 04:35:36;;;;;;;6.78;2.67;;;9.80;77.70;;;;;;5030975;28;20145;-66
2022/05/06 04:38:05;;;;;;;5.82;2.55;;;9.80;77.80;;;;;;5028601;28;20506;-67
2022/05/06 04:40:35;;;;;;;5.28;2.47;;;9.80;77.80;;;;;;5032276;28;20091;-65
2022/05/06 04:43:05;;;;;;;4.95;2.50;;;9.80;77.90;;;;;;5041891;28;20045;-65
2022/05/06 04:45:38;;;;;;;7.00;2.28;;;9.80;77.90;;;;;;5048491;28;20107;-65
2022/05/06 04:48:07;;;;;;;4.22;1.98;;;9.80;77.90;;;;;;5042840;28;20068;-65
2022/05/06 04:50:36;;;;;;;5.23;2.23;;;9.80;77.90;;;;;;5034631;28;20131;-65
2022/05/06 04:53:07;;;;;;;4.82;2.55;;;9.80;78.00;;;;;;5041380;28;20486;-65
2022/05/06 04:55:34;;;;;;;5.55;2.35;;;9.80;78.00;;;;;;5041088;28;21001;-65
2022/05/06 04:58:01;;;;;;;5.97;2.58;;;9.70;78.20;;;;;;5036260;28;20163;-65
2022/05/06 05:00:29;;;;;;;4.18;2.20;;;9.80;78.20;;;;;;5040124;28;20045;-65
2022/05/06 05:02:57;;;;;;;6.07;2.83;;;9.80;78.20;;;;;;5032698;28;20059;-67
2022/05/06 05:05:24;;;;;;;5.47;2.22;;;9.80;78.20;;;;;;5034187;28;20068;-65
2022/05/06 05:07:52;;;;;;;4.95;2.20;;;9.80;78.20;;;;;;5051498;28;20049;-66
2022/05/06 05:10:18;;;;;;;3.38;1.95;;;9.80;78.40;;;;;;5038221;28;20045;-66
2022/05/06 05:12:46;;;;;;;4.75;2.53;;;9.80;78.40;;;;;;5044955;28;20049;-65
2022/05/06 05:15:13;;;;;;;4.63;2.35;;;9.90;78.60;;;;;;5031128;28;20132;-65
2022/05/06 05:17:42;;;;;;;4.03;2.10;;;9.90;78.60;;;;;;5032984;28;20045;-65
2022/05/06 05:20:11;;;;;;;3.17;1.52;;;9.90;78.50;;;;;;5044042;28;20049;-65
2022/05/06 05:22:39;;;;;;;4.38;2.03;;;10.00;78.40;;;;;;5033298;28;20068;-66
2022/05/06 05:25:10;;;;;;;3.47;1.77;;;10.00;78.30;;;;;;5040968;28;20067;-64
2022/05/06 05:27:39;;;;;;;4.53;2.33;;;10.00;78.40;;;;;;5026723;28;20414;-66
2022/05/06 05:30:09;;;;;;;4.90;2.20;;;10.10;78.40;;;;;;5023864;28;20059;-66
2022/05/06 05:32:39;;;;;;;7.80;2.10;;;10.10;78.30;;;;;;5039093;28;20102;-66
2022/05/06 05:35:09;;;;;;;4.20;2.30;;;10.20;78.30;;;;;;5043498;28;20103;-65
2022/05/06 05:37:41;;;;;;;4.43;2.10;;;10.20;78.30;;;;;;5039029;28;20091;-65
2022/05/06 05:40:10;;;;;;;3.75;2.22;;;10.20;78.30;;;;;;5036516;28;20148;-64
2022/05/06 05:42:40;;;;;;;6.60;2.80;;;10.20;78.50;;;;;;5020520;28;20073;-68
2022/05/06 05:51:02;;;;;;;5.60;2.45;;;10.30;78.90;;;;;;5006315;28;20127;-66
2022/05/06 05:53:36;;;;;;;9.18;3.30;;;10.30;78.90;;;;;;5025905;28;20060;-65
2022/05/06 05:56:03;;;;;;;7.90;3.00;;;10.40;78.90;;;;;;5049773;28;20048;-64
2022/05/06 05:58:31;;;;;;;7.15;2.90;;;10.40;78.80;;;;;;5044922;28;20037;-65
2022/05/06 06:01:01;;;;;;;8.93;3.22;;;10.40;78.70;;;;;;5016403;28;20068;-66
2022/05/06 06:03:33;;;;;;;6.88;3.15;;;10.40;78.80;;;;;;5021364;28;20122;-65
2022/05/06 06:06:04;;;;;;;8.35;3.95;;;10.50;78.90;;;;;;5043100;28;20183;-65
2022/05/06 06:08:32;;;;;;;5.82;3.20;;;10.60;78.60;;;;;;5020702;28;21386;-66
2022/05/06 06:11:03;;;;;;;8.48;2.58;;;10.60;78.60;;;;;;5019764;28;20049;-66
2022/05/06 06:13:35;;;;;;;7.18;2.97;;;10.60;78.80;;;;;;5042880;28;20408;-65
2022/05/06 06:16:04;;;;;;;6.22;3.22;;;10.70;78.70;;;;;;5022185;28;20387;-64
2022/05/06 06:18:31;;;;;;;7.55;3.22;;;10.70;78.70;;;;;;5042983;28;20041;-65
2022/05/06 06:21:00;;;;;;;8.90;3.60;;;10.80;78.60;;;;;;5027727;28;20049;-67
2022/05/06 06:23:32;;;;;;;7.88;2.80;;;10.90;78.60;;;;;;5040617;28;20064;-65
2022/05/06 06:26:00;;;;;;;8.27;3.28;;;10.90;78.40;;;;;;5019873;28;20076;-64
2022/05/06 06:28:28;;;;;;;7.82;3.05;;;11.10;78.20;;;;;;5026619;28;20044;-64
2022/05/06 06:30:55;;;;;;;6.07;3.25;;;11.10;78.10;;;;;;5037742;28;20045;-65
2022/05/06 06:33:22;;;;;;;7.22;2.92;;;11.20;78.10;;;;;;5026138;28;20072;-65
2022/05/06 06:35:49;;;;;;;7.68;3.08;;;11.30;77.90;;;;;;5012847;28;20453;-65
2022/05/06 06:38:16;;;;;;;6.20;2.92;;;11.50;77.80;;;;;;5030170;28;20048;-65
2022/05/06 06:40:45;;;;;;;9.32;3.28;;;11.60;77.80;;;;;;5023177;28;20402;-65
2022/05/06 06:43:12;;;;;;;5.60;2.65;;;11.70;77.50;;;;;;5026566;28;20044;-66
2022/05/06 06:45:45;;;;;;;6.40;2.65;;;11.90;77.70;;;;;;5025506;28;20045;-67
2022/05/06 06:48:30;;;;;;;6.18;2.47;;;12.10;77.20;;;;;;5011251;28;20140;-65
2022/05/06 06:51:10;;;;;;;4.85;2.67;;;12.20;77.00;;;;;;5016580;28;20057;-66
2022/05/06 06:54:06;;;;;;;4.90;2.58;;;12.30;77.20;;;;;;5031189;28;20060;-66
2022/05/06 06:56:34;;;;;;;5.20;2.70;;;12.60;76.80;;;;;;5033898;28;20049;-67
2022/05/06 06:59:01;;;;;;;5.20;2.30;;;12.70;76.80;;;;;;5036776;28;20033;-66
2022/05/06 07:01:32;;;;;;;7.85;2.25;;;12.90;76.40;;;;;;5031357;28;20069;-65
2022/05/06 07:04:00;;;;;;;6.50;2.22;;;13.10;76.10;;;;;;5037869;28;20053;-67
2022/05/06 07:11:57;;;;;;;4.85;2.22;;;13.50;75.10;;;;;;5039888;28;20122;-66
2022/05/06 07:14:33;;;;;;;11.70;2.78;;;13.70;74.40;;;;;;5042578;28;20084;-65
2022/05/06 07:17:00;;;;;;;4.47;2.30;;;13.90;73.80;;;;;;5039956;28;20132;-64
2022/05/06 07:19:27;;;;;;;3.78;1.42;;;14.10;73.20;;;;;;5019643;28;20060;-65
2022/05/06 07:21:54;;;;;;;3.50;2.03;;;14.20;72.40;;;;;;5033980;28;20072;-65
2022/05/06 07:24:24;;;;;;;4.47;1.73;;;14.40;71.70;;;;;;5025480;28;20391;-65
2022/05/06 07:26:51;;;;;;;4.70;2.10;;;14.50;71.60;;;;;;5036803;28;20045;-67
2022/05/06 07:29:20;;;;;;;3.70;1.50;;;14.70;70.30;;;;;;5032859;28;20621;-66
2022/05/06 07:31:47;;;;;;;3.58;1.60;;;14.90;69.50;;;;;;5036968;28;20103;-65
2022/05/06 07:34:15;;;;;;;4.30;1.48;;;15.00;69.60;;;;;;5011774;28;1163591;-68
2022/05/06 07:36:42;;;;;;;4.20;1.85;;;15.10;68.90;;;;;;5054923;28;20380;-67
2022/05/06 07:39:11;;;;;;;3.85;1.48;;;15.20;67.90;;;;;;5057745;28;20036;-66
2022/05/06 07:41:38;;;;;;;5.88;1.70;;;15.40;67.80;;;;;;5056351;28;20071;-66
2022/05/06 07:44:06;;;;;;;4.25;1.58;;;15.40;67.70;;;;;;5053576;28;20045;-68
2022/05/06 07:46:35;;;;;;;4.45;1.25;;;15.60;67.50;;;;;;5054491;28;20049;-67
2022/05/06 07:49:02;;;;;;;3.90;1.10;;;15.70;67.10;;;;;;5051927;28;20111;-67
2022/05/06 07:51:29;;;;;;;2.78;1.20;;;15.80;67.70;;;;;;5050256;28;20041;-66
2022/05/06 07:53:57;;;;;;;3.22;1.35;;;15.90;67.10;;;;;;5053684;28;20527;-66
2022/05/06 07:56:24;;;;;;;4.25;1.50;;;16.00;66.70;;;;;;5052902;28;20040;-66
2022/05/06 07:58:51;;;;;;;1.92;1.08;;;16.20;65.60;;;;;;5051466;28;20055;-66
2022/05/06 08:04:32;;;;;;;6.90;2.05;;;16.30;65.20;;;;;;5051619;28;20282;-67
2022/05/06 08:06:51;;;;;;;3.28;1.25;;;16.50;65.80;;;;;;5055065;28;20057;-66
2022/05/06 08:09:18;;;;;;;2.75;1.30;;;16.60;65.40;;;;;;5054763;28;20060;-66
2022/05/06 08:11:46;;;;;;;2.75;1.35;;;16.80;65.40;;;;;;5050851;28;20037;-66
2022/05/06 08:14:14;;;;;;;3.70;1.55;;;16.90;63.70;;;;;;5054317;28;20814;-66
2022/05/06 08:16:41;;;;;;;3.65;1.30;;;17.00;64.00;;;;;;5053470;28;20147;-66
2022/05/06 08:19:09;;;;;;;4.80;1.63;;;17.10;63.40;;;;;;5054835;28;20049;-66
2022/05/06 08:21:36;;;;;;;2.88;1.33;;;17.20;62.70;;;;;;5053637;28;20064;-66
2022/05/06 08:24:04;;;;;;;4.80;1.00;;;17.30;62.30;;;;;;5050763;28;20036;-65
2022/05/06 08:26:31;;;;;;;3.55;1.30;;;17.40;61.90;;;;;;5052805;28;20055;-65
2022/05/06 08:28:58;;;;;;;4.00;1.40;;;17.50;61.20;;;;;;5052713;28;20041;-66
2022/05/06 08:31:24;;;;;;;5.18;2.30;;;17.60;59.50;;;;;;5052024;28;20039;-66
2022/05/06 08:33:51;;;;;;;4.40;1.58;;;17.70;60.10;;;;;;5050268;28;20225;-66
2022/05/06 08:36:20;;;;;;;2.60;1.30;;;17.80;60.20;;;;;;5047284;28;20072;-67
2022/05/06 08:38:48;;;;;;;3.35;1.48;;;17.80;60.20;;;;;;5050734;28;20053;-66
2022/05/06 08:41:16;;;;;;;3.22;1.50;;;17.90;60.10;;;;;;5047911;28;20398;-65
2022/05/06 08:43:43;;;;;;;4.07;1.10;;;18.00;60.20;;;;;;5046131;28;20051;-65
2022/05/06 08:51:41;;;;;;;3.13;1.33;;;18.30;59.30;;;;;;5024191;28;20053;-65
2022/05/06 08:54:08;;;;;;;3.63;1.27;;;18.40;55.60;;;;;;5043828;28;20136;-67
2022/05/06 08:56:35;;;;;;;4.65;1.30;;;18.50;54.20;;;;;;5040808;28;20040;-66
2022/05/06 08:59:02;;;;;;;3.58;1.25;;;18.50;52.80;;;;;;5045208;28;20048;-67
2022/05/06 09:01:29;;;;;;;1.73;0.82;;;18.60;54.70;;;;;;5042276;28;20037;-67
2022/05/06 09:03:58;;;;;;;4.43;1.10;;;18.60;54.20;;;;;;5043326;28;20048;-68
2022/05/06 09:06:26;;;;;;;2.80;0.90;;;18.70;55.50;;;;;;5047222;28;20490;-68
2022/05/06 09:08:57;;;;;;;3.72;1.17;;;18.80;56.60;;;;;;5042169;28;20120;-67
2022/05/06 09:14:08;;;;;;;4.93;1.38;;;19.00;53.80;;;;;;5045150;28;20055;-65
2022/05/06 09:16:40;;;;;;;4.65;1.50;;;19.00;52.70;;;;;;5042101;28;20048;-67
2022/05/06 09:19:12;;;;;;;1.48;0.90;;;19.10;52.40;;;;;;5045223;28;20068;-67
2022/05/06 09:21:40;;;;;;;2.17;0.88;;;19.20;50.10;;;;;;5041833;28;20441;-67
2022/05/06 09:24:18;;;;;;;5.32;1.30;;;19.30;49.60;;;;;;5042193;28;20099;-67
2022/05/06 09:27:00;;;;;;;2.43;0.90;;;19.40;49.10;;;;;;5037432;28;20036;-67
2022/05/06 09:29:31;;;;;;;2.65;0.55;;;19.40;47.80;;;;;;5041471;28;20037;-67
2022/05/06 09:32:14;;;;;;;2.25;1.00;;;19.50;48.10;;;;;;5042498;28;20132;-68
2022/05/06 09:34:41;;;;;;;2.22;0.70;;;19.60;46.10;;;;;;5061449;28;20040;-68
2022/05/06 09:37:08;;;;;;;1.70;0.70;;;19.60;47.00;;;;;;5061150;28;20158;-66
2022/05/06 09:39:38;;;;;;;2.25;0.85;;;19.60;46.90;;;;;;5063877;28;20040;-66
2022/05/06 09:42:06;;;;;;;0.82;0.47;;;19.70;46.50;;;;;;5062741;28;20048;-69
2022/05/06 09:44:34;;;;;;;2.53;0.80;;;19.70;46.90;;;;;;5062318;28;20139;-66
2022/05/06 09:47:11;;;;;;;2.53;0.77;;;19.80;45.70;;;;;;5064368;28;20126;-66
2022/05/06 09:49:40;;;;;;;1.30;0.55;;;19.90;45.50;;;;;;5063620;28;20048;-65
2022/05/06 09:52:12;;;;;;;1.15;0.60;;;20.00;44.90;;;;;;5061516;28;20482;-68
2022/05/06 09:54:42;;;;;;;1.73;0.50;;;20.00;44.70;;;;;;5068246;28;20048;-66
2022/05/06 09:57:11;;;;;;;1.25;0.50;;;20.00;44.80;;;;;;5072371;28;20061;-67
2022/05/06 09:59:39;;;;;;;3.63;0.77;;;20.10;45.00;;;;;;5063132;28;20087;-66
2022/05/06 10:02:08;;;;;;;0.93;0.50;;;20.10;44.70;;;;;;5060784;28;20044;-68
2022/05/06 10:04:35;;;;;;;1.23;0.70;;;20.10;45.70;;;;;;5065242;28;20043;-67
2022/05/06 10:07:05;;;;;;;2.95;0.77;;;20.10;46.10;;;;;;5064766;28;20049;-67
2022/05/06 10:09:36;;;;;;;1.58;0.70;;;20.20;45.50;;;;;;5066479;28;20044;-66
2022/05/06 10:12:07;;;;;;;1.40;0.63;;;20.20;46.10;;;;;;5064108;28;20116;-67
2022/05/06 10:14:36;;;;;;;2.05;0.80;;;20.20;47.10;;;;;;5064853;28;20157;-66
2022/05/06 10:17:03;;;;;;;1.38;0.60;;;20.30;45.70;;;;;;5063282;28;20036;-67
2022/05/06 10:19:46;;;;;;;1.80;0.80;;;20.30;46.30;;;;;;5047360;28;20064;-66
2022/05/06 10:22:13;;;;;;;1.92;0.73;;;20.30;46.70;;;;;;5043964;28;20044;-65
2022/05/06 10:24:43;;;;;;;3.17;0.82;;;20.30;47.30;;;;;;5062231;28;20039;-67
2022/05/06 10:32:25;;;;;;;1.97;0.73;;;20.40;47.20;;;;;;5063225;28;20048;-67
2022/05/06 10:33:14;;;;;;;2.78;0.95;;;20.50;46.20;;;;;;5065146;28;20524;-67
2022/05/06 10:35:43;;;;;;;1.40;0.65;;;20.50;47.30;;;;;;5066268;28;20148;-67
2022/05/06 10:38:22;;;;;;;2.03;0.77;;;20.50;47.30;;;;;;5063761;28;20040;-66
2022/05/06 10:40:58;;;;;;;2.27;1.07;;;20.60;47.20;;;;;;5061141;28;20045;-65
2022/05/06 10:43:54;;;;;;;6.38;1.60;;;20.50;47.90;;;;;;5062381;28;20037;-67
2022/05/06 10:46:39;;;;;;;3.20;1.10;;;20.60;47.20;;;;;;5061889;28;20098;-67
2022/05/06 10:49:47;;;;;;;3.97;1.10;;;20.60;46.20;;;;;;5058184;28;20052;-67
2022/05/06 10:52:39;;;;;;;3.00;1.20;;;20.60;46.90;;;;;;5059417;28;20055;-65
2022/05/06 10:55:06;;;;;;;2.20;1.02;;;20.60;46.30;;;;;;5062764;28;20229;-67
2022/05/06 10:57:46;;;;;;;3.15;1.33;;;20.60;46.70;;;;;;5060587;28;20128;-66
2022/05/06 11:00:16;;;;;;;4.50;1.20;;;20.70;47.00;;;;;;5060704;28;20410;-67
2022/05/06 11:02:44;;;;;;;1.52;0.82;;;20.70;47.30;;;;;;5061415;28;20119;-66
2022/05/06 11:05:14;;;;;;;1.70;0.90;;;20.80;47.20;;;;;;5046216;28;20053;-65
2022/05/06 11:07:43;;;;;;;3.22;1.30;;;20.80;47.30;;;;;;5063636;28;20053;-67
2022/05/06 11:10:11;;;;;;;4.60;1.53;;;20.80;47.10;;;;;;5059285;28;20045;-67
2022/05/06 11:12:41;;;;;;;3.40;0.90;;;20.80;47.80;;;;;;5059263;28;20558;-66
2022/05/06 11:15:10;;;;;;;1.70;1.00;;;20.70;46.90;;;;;;5058852;28;20094;-69
2022/05/06 11:17:38;;;;;;;2.00;0.70;;;20.80;46.20;;;;;;5063334;28;20122;-67
2022/05/06 11:20:16;;;;;;;1.67;0.90;;;20.90;46.90;;;;;;5063880;28;20498;-66
2022/05/06 11:22:51;;;;;;;1.35;0.75;;;20.80;46.70;;;;;;5061839;28;20486;-66
2022/05/06 11:25:18;;;;;;;1.70;0.95;;;20.90;46.60;;;;;;5061164;28;20064;-69
2022/05/06 11:27:46;;;;;;;2.63;1.00;;;20.90;46.40;;;;;;5063363;28;20072;-68
2022/05/06 11:30:17;;;;;;;2.03;0.77;;;20.90;45.50;;;;;;5061369;28;20054;-68
2022/05/06 11:32:50;;;;;;;2.20;1.00;;;21.00;45.40;;;;;;5064120;28;20510;-66
2022/05/06 11:35:21;;;;;;;1.90;0.73;;;21.00;46.70;;;;;;5060827;28;20052;-66
2022/05/06 11:37:49;;;;;;;2.45;0.88;;;21.00;47.30;;;;;;5063855;28;20043;-66
2022/05/06 11:40:36;;;;;;;2.13;1.02;;;20.90;47.00;;;;;;5066160;28;20032;-67
2022/05/06 11:43:08;;;;;;;4.57;1.02;;;21.00;46.20;;;;;;5062123;28;20048;-68
2022/05/06 11:48:23;;;;;;;1.13;0.60;;;21.10;45.20;;;;;;5061480;28;20055;-68
2022/05/06 11:50:57;;;;;;;1.92;0.65;;;21.10;45.70;;;;;;5061654;28;20040;-66
2022/05/06 11:53:28;;;;;;;4.20;1.00;;;21.10;45.20;;;;;;5063943;28;20044;-67
2022/05/06 11:55:56;;;;;;;5.03;1.33;;;21.10;45.00;;;;;;5061835;28;20041;-67
2022/05/06 11:58:25;;;;;;;2.35;1.10;;;21.10;45.50;;;;;;5066796;28;20041;-66
2022/05/06 12:00:53;;;;;;;4.03;1.08;;;21.10;46.60;;;;;;5059760;28;20032;-67
2022/05/06 12:03:24;;;;;;;2.10;0.90;;;21.10;47.80;;;;;;5069758;28;20498;-67
2022/05/06 12:06:09;;;;;;;1.65;0.90;;;21.10;45.90;;;;;;5069785;28;20049;-65
2022/05/06 12:08:37;;;;;;;3.80;0.65;;;21.10;44.60;;;;;;5070827;28;20052;-65
2022/05/06 12:11:06;;;;;;;2.47;0.60;;;21.10;43.90;;;;;;5071180;28;20041;-66
2022/05/06 12:13:41;;;;;;;3.25;0.63;;;21.20;43.80;;;;;;5071703;28;20097;-65
2022/05/06 12:16:12;;;;;;;3.22;0.70;;;21.20;44.60;;;;;;5068589;28;20047;-67
2022/05/06 12:18:53;;;;;;;1.92;0.70;;;21.20;43.30;;;;;;5073045;28;20501;-67
2022/05/06 12:21:22;;;;;;;1.20;0.47;;;21.20;42.80;;;;;;5073881;28;20109;-66
2022/05/06 12:23:59;;;;;;;1.45;0.73;;;21.20;42.70;;;;;;5072712;28;20040;-66
2022/05/06 12:26:28;;;;;;;2.33;0.77;;;21.30;44.80;;;;;;5070642;28;20041;-67
2022/05/06 12:28:55;;;;;;;1.65;0.65;;;21.10;46.50;;;;;;5071435;28;20357;-66
2022/05/06 12:31:27;;;;;;;4.00;0.82;;;21.10;46.00;;;;;;5067949;28;20127;-69
2022/05/06 12:34:02;;;;;;;2.47;1.13;;;21.10;45.90;;;;;;5053350;28;20061;-67
2022/05/06 12:36:29;;;;;;;2.88;1.08;;;21.10;46.10;;;;;;5070576;28;20039;-65
2022/05/06 12:38:56;;;;;;;3.40;0.85;;;21.10;47.10;;;;;;5072103;28;20843;-64
2022/05/06 12:41:25;;;;;;;3.85;0.70;;;21.00;46.40;;;;;;5070664;28;20118;-67
2022/05/06 12:43:54;;;;;;;3.50;0.80;;;21.10;47.30;;;;;;5072686;28;20107;-65
2022/05/06 12:46:28;;;;;;;3.15;1.00;;;21.00;46.80;;;;;;5071405;28;20156;-67
2022/05/06 12:51:43;;;;;;;4.88;0.82;;;21.10;45.60;;;;;;5070529;28;20037;-67
2022/05/06 12:54:10;;;;;;;2.75;1.13;;;21.10;46.50;;;;;;5070374;28;20712;-65
2022/05/06 12:56:38;;;;;;;2.42;0.75;;;21.20;45.80;;;;;;5071701;28;20051;-66
2022/05/06 12:59:05;;;;;;;3.35;0.70;;;21.20;45.60;;;;;;5069161;28;20044;-67
2022/05/06 13:01:32;;;;;;;2.88;1.08;;;21.20;44.30;;;;;;5069562;28;20127;-68
2022/05/06 13:03:59;;;;;;;3.03;0.50;;;21.30;43.70;;;;;;5072915;28;20044;-67
2022/05/06 13:06:26;;;;;;;1.20;0.63;;;21.30;43.30;;;;;;5070314;28;20064;-67
2022/05/06 13:08:55;;;;;;;0.93;0.40;;;21.30;43.80;;;;;;5069861;28;20117;-67
2022/05/06 13:11:22;;;;;;;2.35;0.60;;;21.30;44.20;;;;;;5067503;28;20047;-68
2022/05/06 13:13:48;;;;;;;1.73;0.60;;;21.20;44.50;;;;;;5066748;28;20049;-67
2022/05/06 13:16:15;;;;;;;0.85;0.55;;;21.10;46.20;;;;;;5060803;28;20052;-66
2022/05/06 13:18:43;;;;;;;2.25;0.90;;;21.10;44.90;;;;;;5062766;28;20410;-65
2022/05/06 13:21:10;;;;;;;1.80;0.70;;;21.10;44.10;;;;;;5072713;28;20490;-67
2022/05/06 13:23:43;;;;;;;4.22;1.15;;;21.10;44.70;;;;;;5072138;28;20036;-67
2022/05/06 13:26:12;;;;;;;4.18;1.33;;;21.20;44.00;;;;;;5071148;28;20052;-67
2022/05/06 13:28:39;;;;;;;3.45;1.02;;;21.20;43.90;;;;;;5072385;28;20048;-67
2022/05/06 13:31:06;;;;;;;2.50;0.77;;;21.20;44.50;;;;;;5071251;28;20123;-67
2022/05/06 13:33:33;;;;;;;2.80;0.85;;;21.20;44.90;;;;;;5070524;28;20049;-67
2022/05/06 13:36:00;;;;;;;5.07;1.38;;;21.20;44.60;;;;;;5071536;28;20043;-67
2022/05/06 13:38:27;;;;;;;2.50;0.93;;;21.20;45.00;;;;;;5070360;28;20049;-67
2022/05/06 13:40:54;;;;;;;1.60;0.80;;;21.20;44.70;;;;;;5070422;28;20036;-68
2022/05/06 13:43:22;;;;;;;2.47;0.60;;;21.20;44.20;;;;;;5070057;28;20143;-66
2022/05/06 13:45:49;;;;;;;1.48;0.60;;;21.20;44.10;;;;;;5070618;28;20043;-66